createdAt,value
2023-04-21T00:02:50.410Z,2.20
2023-04-21T00:06:22.277Z,2.83
2023-04-21T00:09:48.179Z,3.20
2023-04-21T00:13:12.341Z,3.67
2023-04-21T00:16:36.933Z,3.60
2023-04-21T00:20:00.588Z,3.43
2023-04-21T00:23:24.612Z,3.03
2023-04-21T00:26:49.815Z,3.33
2023-04-21T00:30:14.641Z,3.37
2023-04-21T00:33:38.470Z,2.80
2023-04-21T00:37:02.652Z,3.30
2023-04-21T00:40:27.341Z,3.73
2023-04-21T00:44:06.284Z,3.40
2023-04-21T00:47:29.761Z,3.93
2023-04-21T00:50:53.724Z,3.23
2023-04-21T00:54:19.537Z,3.60
2023-04-21T00:57:44.510Z,4.67
2023-04-21T01:01:09.663Z,3.43
2023-04-21T01:04:37.069Z,4.40
2023-04-21T01:08:02.062Z,4.70
2023-04-21T01:11:26.248Z,4.07
2023-04-21T01:14:50.536Z,5.47
2023-04-21T01:18:16.995Z,4.60
2023-04-21T01:21:42.844Z,4.63
2023-04-21T01:25:07.728Z,4.80
2023-04-21T01:28:33.276Z,5.00
2023-04-21T01:31:57.058Z,6.77
2023-04-21T01:35:21.924Z,5.80
2023-04-21T01:38:47.193Z,5.67
2023-04-21T01:45:50.014Z,6.03
2023-04-21T01:49:13.865Z,5.33
2023-04-21T01:52:37.674Z,4.63
2023-04-21T01:56:02.767Z,5.23
2023-04-21T01:59:28.175Z,5.20
2023-04-21T02:02:52.065Z,4.90
2023-04-21T02:06:17.762Z,4.50
2023-04-21T02:09:41.631Z,4.67
2023-04-21T02:13:06.545Z,4.97
2023-04-21T02:16:30.801Z,6.13
2023-04-21T02:19:54.763Z,5.10
2023-04-21T02:23:18.511Z,5.40
2023-04-21T02:26:42.247Z,5.83
2023-04-21T02:30:09.036Z,6.00
2023-04-21T02:33:32.775Z,5.33
2023-04-21T02:36:56.654Z,6.30
2023-04-21T02:40:21.181Z,5.50
2023-04-21T02:43:44.983Z,5.90
2023-04-21T02:47:10.121Z,6.20
2023-04-21T02:50:34.084Z,5.80
2023-04-21T02:53:57.997Z,5.60
2023-04-21T02:57:21.934Z,5.70
2023-04-21T03:00:45.856Z,5.20
2023-04-21T03:04:10.740Z,5.10
2023-04-21T03:07:34.973Z,6.13
2023-04-21T03:10:59.083Z,5.60
2023-04-21T03:14:23.002Z,5.67
2023-04-21T03:17:46.867Z,6.40
2023-04-21T03:21:12.124Z,6.23
2023-04-21T03:24:36.030Z,4.73
2023-04-21T03:27:59.862Z,5.07
2023-04-21T03:31:23.421Z,6.80
2023-04-21T03:34:47.200Z,5.50
2023-04-21T03:38:12.632Z,6.00
2023-04-21T03:41:36.783Z,6.63
2023-04-21T03:45:03.757Z,6.00
2023-04-21T03:48:31.856Z,7.37
2023-04-21T03:51:55.775Z,7.10
2023-04-21T03:55:20.709Z,7.60
2023-04-21T03:58:44.541Z,6.40
2023-04-21T04:02:08.425Z,6.40
2023-04-21T04:05:32.302Z,5.73
2023-04-21T04:08:56.230Z,6.90
2023-04-21T04:12:21.452Z,6.17
2023-04-21T04:15:45.402Z,6.77
2023-04-21T04:19:09.610Z,6.47
2023-04-21T04:22:33.743Z,7.03
2023-04-21T04:25:57.677Z,6.43
2023-04-21T04:29:23.339Z,7.50
2023-04-21T04:32:47.055Z,7.47
2023-04-21T04:36:11.882Z,6.17
2023-04-21T04:39:37.023Z,6.70
2023-04-21T04:43:01.346Z,8.10
2023-04-21T04:46:28.347Z,7.50
2023-04-21T04:49:52.264Z,7.73
2023-04-21T04:53:16.140Z,5.80
2023-04-21T04:56:40.448Z,7.50
2023-04-21T05:00:04.580Z,7.37
2023-04-21T05:03:30.396Z,7.63
2023-04-21T05:06:54.225Z,6.70
2023-04-21T05:10:18.026Z,8.60
2023-04-21T05:13:41.821Z,6.27
2023-04-21T05:17:05.721Z,8.73
2023-04-21T05:20:30.960Z,7.93
2023-04-21T05:23:55.125Z,7.37
2023-04-21T05:27:18.872Z,7.53
2023-04-21T05:30:42.648Z,6.97
2023-04-21T05:34:06.438Z,6.63
2023-04-21T05:37:31.221Z,7.50
2023-04-21T05:40:56.384Z,7.33
2023-04-21T05:44:20.358Z,7.50
2023-04-21T05:47:44.316Z,6.10
2023-04-21T05:51:11.651Z,7.67
2023-04-21T05:54:36.801Z,6.30
2023-04-21T05:58:00.591Z,7.33
2023-04-21T06:01:24.356Z,6.97
2023-04-21T06:04:48.308Z,6.23
2023-04-21T06:08:12.366Z,9.40
2023-04-21T06:11:37.246Z,8.03
2023-04-21T06:15:01.123Z,7.27
2023-04-21T06:18:27.710Z,6.40
2023-04-21T06:21:51.730Z,5.90
2023-04-21T06:25:15.714Z,5.30
2023-04-21T06:28:40.996Z,6.67
2023-04-21T06:32:05.038Z,6.93
2023-04-21T06:35:28.929Z,6.87
2023-04-21T06:38:52.838Z,6.57
2023-04-21T06:42:16.606Z,4.63
2023-04-21T06:45:42.974Z,5.60
2023-04-21T06:49:06.836Z,4.97
2023-04-21T06:52:30.760Z,5.40
2023-04-21T06:55:54.869Z,5.20
2023-04-21T06:59:18.942Z,4.50
2023-04-21T07:02:44.093Z,5.57
2023-04-21T07:06:08.135Z,4.53
2023-04-21T07:09:33.804Z,5.53
2023-04-21T07:12:57.915Z,5.27
2023-04-21T07:16:21.992Z,5.87
2023-04-21T07:19:46.830Z,6.20
2023-04-21T07:23:10.744Z,5.50
2023-04-21T07:26:34.670Z,5.87
2023-04-21T07:29:58.503Z,5.70
2023-04-21T07:33:22.329Z,4.97
2023-04-21T07:36:47.624Z,5.50
2023-04-21T07:40:12.176Z,5.60
2023-04-21T07:43:36.076Z,6.80
2023-04-21T07:46:59.877Z,5.23
2023-04-21T07:50:23.730Z,6.00
2023-04-21T07:53:48.904Z,4.33
2023-04-21T07:57:12.794Z,5.50
2023-04-21T08:00:37.484Z,6.50
2023-04-21T08:04:01.722Z,4.20
2023-04-21T08:07:26.014Z,5.00
2023-04-21T08:10:51.287Z,4.60
2023-04-21T08:14:15.405Z,4.40
2023-04-21T08:17:39.534Z,5.17
2023-04-21T08:21:03.506Z,4.50
2023-04-21T08:24:27.508Z,4.00
2023-04-21T08:27:52.759Z,4.60
2023-04-21T08:31:16.881Z,4.77
2023-04-21T08:34:41.047Z,6.43
2023-04-21T08:38:04.881Z,4.07
2023-04-21T08:41:29.085Z,4.80
2023-04-21T08:44:54.533Z,4.47
2023-04-21T08:48:21.658Z,4.50
2023-04-21T08:51:45.966Z,4.30
2023-04-21T08:55:12.931Z,4.23
2023-04-21T08:58:36.751Z,4.23
2023-04-21T09:02:16.289Z,4.20
2023-04-21T09:05:43.071Z,3.80
2023-04-21T09:09:07.681Z,3.50
2023-04-21T09:12:31.971Z,3.30
2023-04-21T09:15:55.928Z,3.10
2023-04-21T09:19:21.424Z,2.50
2023-04-21T09:22:45.776Z,2.10
2023-04-21T09:26:09.990Z,2.63
2023-04-21T09:29:33.625Z,2.20
2023-04-21T09:33:00.648Z,2.10
2023-04-21T09:36:28.326Z,2.17
2023-04-21T09:40:03.598Z,3.13
2023-04-21T09:43:28.499Z,2.10
2023-04-21T09:46:55.397Z,2.30
2023-04-21T09:50:41.824Z,2.10
2023-04-21T09:57:45.686Z,2.33
2023-04-21T10:01:10.775Z,2.37
2023-04-21T10:04:37.544Z,2.30
2023-04-21T10:08:01.909Z,2.77
2023-04-21T10:11:27.288Z,2.33
2023-04-21T10:14:53.376Z,3.40
2023-04-21T10:18:18.913Z,2.50
2023-04-21T10:21:42.758Z,2.53
2023-04-21T10:25:10.941Z,2.60
2023-04-21T10:28:48.358Z,3.37
2023-04-21T10:32:11.849Z,3.37
2023-04-21T10:36:00.115Z,2.90
2023-04-21T10:39:28.835Z,3.50
2023-04-21T10:42:52.287Z,2.40
2023-04-21T10:46:38.302Z,2.73
2023-04-21T10:50:13.395Z,2.77
2023-04-21T10:53:44.899Z,2.80
2023-04-21T10:57:11.205Z,3.30
2023-04-21T11:00:35.253Z,2.83
2023-04-21T11:04:00.317Z,2.30
2023-04-21T11:07:25.508Z,4.00
2023-04-21T11:10:54.824Z,2.50
2023-04-21T11:14:19.310Z,2.30
2023-04-21T11:17:47.179Z,2.80
2023-04-21T11:21:17.838Z,2.77
2023-04-21T11:24:46.083Z,2.57
2023-04-21T11:28:09.873Z,2.77
2023-04-21T11:31:34.402Z,2.63
2023-04-21T11:34:58.647Z,2.30
2023-04-21T11:38:25.819Z,2.30
2023-04-21T11:41:51.385Z,2.50
2023-04-21T11:45:22.214Z,2.60
2023-04-21T11:48:47.132Z,3.30
2023-04-21T11:52:11.179Z,2.30
2023-04-21T11:55:37.098Z,2.73
2023-04-21T11:59:00.712Z,2.20
2023-04-21T12:02:29.155Z,3.17
2023-04-21T12:05:58.739Z,2.50
2023-04-21T12:09:23.145Z,2.53
2023-04-21T12:12:49.319Z,2.43
2023-04-21T12:16:14.505Z,2.20
2023-04-21T12:19:40.836Z,2.30
2023-04-21T12:23:04.795Z,2.40
2023-04-21T12:26:28.688Z,2.30
2023-04-21T12:29:53.622Z,2.20
2023-04-21T12:33:17.631Z,2.30
2023-04-21T12:36:41.800Z,2.53
2023-04-21T12:40:07.054Z,2.10
2023-04-21T12:43:32.093Z,2.10
2023-04-21T12:46:58.098Z,1.67
2023-04-21T12:50:22.125Z,1.77
2023-04-21T12:53:46.357Z,2.23
2023-04-21T12:57:10.242Z,3.50
2023-04-21T13:00:35.967Z,2.03
2023-04-21T13:04:01.928Z,2.20
2023-04-21T13:07:26.998Z,2.00
2023-04-21T13:10:50.570Z,1.67
2023-04-21T13:14:15.841Z,1.77
2023-04-21T13:17:39.808Z,1.80
2023-04-21T13:21:05.508Z,1.70
2023-04-21T13:24:29.071Z,1.90
2023-04-21T13:27:53.491Z,1.60
2023-04-21T13:31:17.576Z,4.63
2023-04-21T13:34:41.509Z,1.77
2023-04-21T13:38:06.914Z,1.53
2023-04-21T13:41:30.885Z,1.50
2023-04-21T13:44:54.834Z,1.67
2023-04-21T13:48:19.288Z,1.70
2023-04-21T13:51:43.104Z,2.00
2023-04-21T13:55:09.033Z,2.47
2023-04-21T13:58:32.587Z,2.10
2023-04-21T14:01:56.148Z,2.73
2023-04-21T14:05:20.426Z,2.07
2023-04-21T14:08:44.333Z,1.80
2023-04-21T14:12:10.335Z,1.70
2023-04-21T14:15:34.203Z,1.80
2023-04-21T14:18:57.676Z,1.77
2023-04-21T14:22:21.554Z,1.60
2023-04-21T14:25:45.391Z,1.50
2023-04-21T14:29:10.576Z,1.63
2023-04-21T14:32:34.763Z,1.50
2023-04-21T14:35:58.837Z,1.90
2023-04-21T14:39:22.752Z,1.40
2023-04-21T14:42:46.425Z,1.60
2023-04-21T14:46:11.743Z,4.37
2023-04-21T14:49:35.766Z,1.50
2023-04-21T14:53:00.010Z,3.00
2023-04-21T14:56:23.788Z,1.53
2023-04-21T14:59:47.633Z,1.50
2023-04-21T15:03:12.946Z,1.90
2023-04-21T15:06:37.035Z,2.03
2023-04-21T15:10:01.135Z,1.40
2023-04-21T15:13:25.935Z,1.73
2023-04-21T15:16:49.811Z,1.50
2023-04-21T15:20:14.675Z,1.50
2023-04-21T15:23:38.506Z,1.30
2023-04-21T15:27:02.579Z,1.50
2023-04-21T15:30:26.527Z,2.07
2023-04-21T15:33:50.370Z,1.40
2023-04-21T15:37:17.486Z,1.37
2023-04-21T15:40:59.771Z,1.27
2023-04-21T15:44:24.936Z,1.70
2023-04-21T15:47:48.803Z,1.23
2023-04-21T15:51:13.719Z,1.30
2023-04-21T15:54:39.556Z,1.47
2023-04-21T15:58:03.752Z,2.10
2023-04-21T16:01:27.863Z,2.00
2023-04-21T16:04:52.037Z,1.40
2023-04-21T16:08:15.928Z,3.13
2023-04-21T16:11:41.243Z,1.50
2023-04-21T16:15:22.529Z,1.80
2023-04-21T16:18:47.911Z,1.40
2023-04-21T16:22:11.691Z,1.80
2023-04-21T16:25:35.831Z,2.53
2023-04-21T16:29:01.217Z,1.47
2023-04-21T16:32:25.811Z,1.40
2023-04-21T16:35:52.094Z,1.70
2023-04-21T16:39:16.087Z,1.43
2023-04-21T16:42:39.825Z,2.73
2023-04-21T16:46:04.856Z,1.50
2023-04-21T16:49:30.197Z,2.00
2023-04-21T16:52:54.411Z,1.40
2023-04-21T16:56:20.255Z,1.60
2023-04-21T16:59:44.049Z,1.73
2023-04-21T17:03:09.621Z,1.57
2023-04-21T17:06:34.211Z,1.80
2023-04-21T17:09:58.069Z,1.47
2023-04-21T17:13:21.977Z,1.40
2023-04-21T17:16:46.308Z,1.50
2023-04-21T17:20:13.744Z,1.43
2023-04-21T17:23:37.468Z,1.50
2023-04-21T17:27:01.382Z,1.30
2023-04-21T17:30:25.337Z,1.30
2023-04-21T17:33:48.907Z,1.90
2023-04-21T17:37:14.274Z,2.37
2023-04-21T17:40:38.206Z,1.30
2023-04-21T17:44:02.266Z,2.13
2023-04-21T17:47:26.572Z,1.40
2023-04-21T17:50:51.098Z,1.23
2023-04-21T17:54:16.068Z,1.27
2023-04-21T17:57:39.577Z,1.37
2023-04-21T18:01:03.477Z,1.40
2023-04-21T18:04:29.837Z,2.13
2023-04-21T18:07:53.873Z,1.50
2023-04-21T18:11:18.796Z,1.60
2023-04-21T18:14:42.730Z,1.67
2023-04-21T18:18:06.880Z,1.60
2023-04-21T18:21:31.764Z,1.20
2023-04-21T18:24:56.202Z,1.40
2023-04-21T18:28:21.448Z,1.20
2023-04-21T18:31:45.696Z,1.40
2023-04-21T18:35:10.466Z,1.20
2023-04-21T18:38:34.582Z,1.30
2023-04-21T18:41:58.709Z,1.50
2023-04-21T18:45:24.036Z,1.40
2023-04-21T18:48:47.915Z,1.80
2023-04-21T18:52:12.255Z,2.30
2023-04-21T18:55:37.470Z,1.30
2023-04-21T18:59:02.058Z,1.23
2023-04-21T19:02:27.543Z,1.20
2023-04-21T19:05:51.690Z,1.20
2023-04-21T19:09:15.781Z,1.20
2023-04-21T19:12:41.528Z,1.20
2023-04-21T19:16:05.938Z,1.40
2023-04-21T19:19:31.223Z,2.17
2023-04-21T19:22:55.343Z,1.30
2023-04-21T19:26:21.744Z,1.30
2023-04-21T19:29:45.832Z,1.20
2023-04-21T19:33:09.719Z,1.20
2023-04-21T19:36:35.242Z,1.20
2023-04-21T19:39:59.079Z,1.20
2023-04-21T19:43:22.884Z,1.30
2023-04-21T19:46:46.856Z,1.20
2023-04-21T19:50:12.773Z,1.30
2023-04-21T19:53:37.634Z,1.50
2023-04-21T19:57:01.665Z,1.23
2023-04-21T20:00:25.960Z,1.30
2023-04-21T20:03:50.183Z,1.30
2023-04-21T20:07:14.143Z,2.17
2023-04-21T20:10:43.699Z,1.20
2023-04-21T20:14:07.540Z,1.37
2023-04-21T20:17:32.719Z,1.23
2023-04-21T20:20:56.568Z,1.20
2023-04-21T20:24:20.443Z,1.20
2023-04-21T20:27:45.774Z,2.40
2023-04-21T20:31:09.801Z,2.40
2023-04-21T20:34:33.652Z,1.40
2023-04-21T20:37:58.478Z,1.27
2023-04-21T20:41:23.290Z,1.50
2023-04-21T20:44:48.532Z,1.60
2023-04-21T20:48:12.372Z,2.57
2023-04-21T20:51:35.962Z,2.60
2023-04-21T20:54:59.766Z,1.57
2023-04-21T20:58:24.379Z,1.50
2023-04-21T21:01:49.569Z,2.20
2023-04-21T21:05:13.530Z,1.40
2023-04-21T21:08:37.426Z,1.30
2023-04-21T21:12:02.276Z,1.30
2023-04-21T21:15:26.362Z,2.23
2023-04-21T21:18:51.898Z,1.40
2023-04-21T21:22:15.360Z,1.23
2023-04-21T21:25:39.256Z,1.30
2023-04-21T21:29:03.364Z,1.40
2023-04-21T21:32:27.242Z,1.33
2023-04-21T21:35:52.371Z,1.40
2023-04-21T21:39:16.344Z,1.70
2023-04-21T21:42:40.301Z,1.40
2023-04-21T21:46:05.491Z,2.63
2023-04-21T21:49:29.420Z,1.80
2023-04-21T21:52:54.555Z,1.33
2023-04-21T21:56:18.136Z,1.23
2023-04-21T21:59:42.093Z,1.60
2023-04-21T22:03:06.227Z,1.70
2023-04-21T22:06:30.164Z,2.33
2023-04-21T22:09:59.572Z,1.30
2023-04-21T22:13:23.298Z,1.20
2023-04-21T22:16:47.402Z,2.10
2023-04-21T22:20:12.914Z,1.40
2023-04-21T22:23:37.109Z,1.67
2023-04-21T22:27:02.023Z,1.40
2023-04-21T22:30:26.178Z,1.30
2023-04-21T22:33:50.011Z,1.50
2023-04-21T22:37:13.884Z,1.60
2023-04-21T22:40:37.781Z,1.50
2023-04-21T22:44:03.075Z,1.40
2023-04-21T22:47:27.730Z,1.40
2023-04-21T22:50:51.557Z,1.50
2023-04-21T22:54:15.712Z,1.43
2023-04-21T22:57:39.610Z,1.70
2023-04-21T23:01:04.472Z,1.70
2023-04-21T23:04:28.574Z,1.37
2023-04-21T23:07:52.822Z,1.43
2023-04-21T23:11:16.745Z,2.93
2023-04-21T23:14:40.695Z,1.70
2023-04-21T23:18:05.874Z,1.60
2023-04-21T23:21:29.696Z,1.57
2023-04-21T23:24:53.573Z,1.80
2023-04-21T23:28:17.641Z,2.17
2023-04-21T23:31:41.596Z,1.40
2023-04-21T23:35:07.759Z,1.60
2023-04-21T23:38:31.651Z,1.80
2023-04-21T23:41:55.756Z,1.70
2023-04-21T23:45:19.722Z,1.50
2023-04-21T23:48:43.651Z,1.50
2023-04-21T23:52:09.062Z,1.87
2023-04-21T23:55:32.586Z,1.40
2023-04-21T23:58:56.604Z,2.20
